Time;durP1;ratioP1;P1;durP2;ratioP2;P2;SDS_P1;SDS_P2;PMS_P1;PMS_P2;Temp;Humidity;BMP_temperature;BMP_pressure;BME280_temperature;BME280_humidity;BME280_pressure;Samples;Min_cycle;Max_cycle;Signal;HPM_P1;HPM_P2
2023/06/16 00:01:46;;;;;;;13.40;8.70;;;;;;;22.02;56.21;100249.73;107999;1256;73829;-81
2023/06/16 00:04:17;;;;;;;11.50;8.50;;;;;;;21.98;56.26;100250.14;108045;1256;72354;-81
2023/06/16 00:06:47;;;;;;;11.00;8.70;;;;;;;21.95;56.30;100250.43;107852;1256;72950;-81
2023/06/16 00:09:15;;;;;;;14.70;9.20;;;;;;;21.92;56.37;100246.93;107990;1256;61710;-81
2023/06/16 00:11:43;;;;;;;13.80;8.70;;;;;;;21.91;56.54;100245.80;107907;1256;60365;-81
2023/06/16 00:14:11;;;;;;;12.00;8.20;;;;;;;21.90;56.46;100242.75;108117;1257;73877;-82
2023/06/16 00:16:40;;;;;;;13.10;9.20;;;;;;;21.87;56.71;100240.64;107965;1256;71689;-81
2023/06/16 00:19:08;;;;;;;10.40;8.60;;;;;;;21.84;56.77;100239.91;107913;1257;71122;-82
2023/06/16 00:21:38;;;;;;;11.10;8.30;;;;;;;21.79;56.90;100238.19;107877;1257;60475;-82
2023/06/16 00:24:10;;;;;;;9.70;8.30;;;;;;;21.75;57.16;100233.73;107983;1255;60466;-80
2023/06/16 00:26:37;;;;;;;12.20;8.70;;;;;;;21.73;57.19;100231.89;108012;1256;74191;-81
2023/06/16 00:29:05;;;;;;;12.70;8.60;;;;;;;21.72;57.37;100233.55;107904;1256;72572;-81
2023/06/16 00:31:33;;;;;;;13.70;8.50;;;;;;;21.67;57.64;100232.23;108041;1255;72687;-81
2023/06/16 00:34:01;;;;;;;14.30;8.80;;;;;;;21.60;57.95;100230.98;107917;1257;61660;-82
2023/06/16 00:36:30;;;;;;;13.60;9.40;;;;;;;21.50;58.30;100226.11;107843;1256;59020;-83
2023/06/16 00:38:59;;;;;;;12.00;8.50;;;;;;;21.45;58.63;100223.30;108080;1255;72592;-82
2023/06/16 00:41:27;;;;;;;14.50;8.40;;;;;;;21.40;58.79;100223.80;107866;1256;71390;-82
2023/06/16 00:43:55;;;;;;;13.90;9.40;;;;;;;21.34;59.17;100221.21;107934;1257;74567;-82
2023/06/16 00:46:28;;;;;;;11.50;8.70;;;;;;;21.28;59.55;100221.80;107857;1257;61746;-81
2023/06/16 00:48:56;;;;;;;11.20;8.30;;;;;;;21.26;59.90;100222.02;108042;1255;60301;-80
2023/06/16 00:51:25;;;;;;;11.90;8.50;;;;;;;21.21;60.36;100221.38;107685;1257;73252;-81
2023/06/16 00:53:54;;;;;;;9.70;7.20;;;;;;;21.13;60.87;100216.98;107933;1256;71688;-81
2023/06/16 00:56:22;;;;;;;11.50;8.80;;;;;;;21.04;61.36;100217.47;108064;1256;72026;-81
2023/06/16 00:58:51;;;;;;;14.10;8.90;;;;;;;20.92;61.69;100213.55;107702;1255;60299;-81
2023/06/16 01:01:19;;;;;;;12.30;8.30;;;;;;;20.86;62.03;100213.58;107990;1256;60410;-81
2023/06/16 01:03:50;;;;;;;12.70;8.40;;;;;;;20.84;62.23;100212.84;107971;1256;72585;-82
2023/06/16 01:06:37;;;;;;;11.40;7.80;;;;;;;20.83;62.25;100215.73;107957;1256;71460;-81
2023/06/16 01:09:15;;;;;;;12.60;8.10;;;;;;;20.81;62.44;100214.81;107968;1256;71490;-82
2023/06/16 01:11:58;;;;;;;9.80;7.90;;;;;;;20.78;62.59;100217.71;107999;1260;61732;-80
2023/06/16 01:14:56;;;;;;;9.40;7.60;;;;;;;20.75;62.70;100218.95;107925;1255;59448;-82
2023/06/16 01:17:24;;;;;;;11.30;8.20;;;;;;;20.70;62.82;100228.42;108009;1255;73953;-79
2023/06/16 01:20:15;;;;;;;11.30;8.60;;;;;;;20.65;62.96;100230.19;107955;1257;71438;-80
2023/06/16 01:23:09;;;;;;;13.80;9.40;;;;;;;20.61;63.37;100230.85;107995;1256;71467;-81
2023/06/16 01:25:38;;;;;;;12.10;9.50;;;;;;;20.58;63.75;100235.70;108073;1255;61754;-80
2023/06/16 01:28:07;;;;;;;11.20;8.80;;;;;;;20.56;64.06;100229.59;107988;1256;60313;-79
2023/06/16 01:30:35;;;;;;;12.20;9.40;;;;;;;20.55;64.32;100231.84;107923;1256;72636;-81
2023/06/16 01:33:03;;;;;;;12.60;8.60;;;;;;;20.54;64.63;100230.20;107793;1257;72743;-82
2023/06/16 01:35:30;;;;;;;13.20;9.10;;;;;;;20.53;64.70;100227.17;107784;1256;72687;-82
2023/06/16 01:37:59;;;;;;;12.70;8.90;;;;;;;20.52;64.93;100229.21;107750;1257;60775;-82
2023/06/16 01:40:28;;;;;;;11.60;8.60;;;;;;;20.53;65.03;100229.84;107931;1259;60307;-82
2023/06/16 01:42:55;;;;;;;15.40;9.90;;;;;;;20.53;65.01;100227.51;107923;1255;74546;-81
2023/06/16 01:45:23;;;;;;;13.40;8.90;;;;;;;20.55;65.15;100229.45;107799;1257;72753;-81
2023/06/16 01:47:51;;;;;;;9.60;8.30;;;;;;;20.56;65.07;100225.60;107714;1256;72704;-81
2023/06/16 01:50:19;;;;;;;11.50;8.30;;;;;;;20.55;65.20;100224.59;107905;1256;60416;-81
2023/06/16 01:52:47;;;;;;;12.40;9.60;;;;;;;20.55;65.27;100229.15;107962;1259;60453;-82
2023/06/16 01:55:14;;;;;;;12.40;9.60;;;;;;;20.55;65.48;100231.09;108003;1255;72617;-81
2023/06/16 01:57:43;;;;;;;11.50;8.70;;;;;;;20.54;65.52;100230.60;108070;1259;70997;-82
2023/06/16 02:00:17;;;;;;;11.50;9.30;;;;;;;20.56;65.64;100227.23;108134;1254;72704;-81
2023/06/16 02:03:12;;;;;;;12.60;8.90;;;;;;;20.54;65.77;100228.96;108012;1256;60599;-81
2023/06/16 02:05:42;;;;;;;15.40;9.70;;;;;;;20.53;65.82;100231.17;107984;1256;60174;-80
2023/06/16 02:08:09;;;;;;;13.50;9.40;;;;;;;20.52;65.84;100228.11;107902;1256;73876;-80
2023/06/16 02:10:37;;;;;;;11.60;9.10;;;;;;;20.53;65.97;100227.98;107723;1256;72717;-80
2023/06/16 02:13:05;;;;;;;12.20;9.70;;;;;;;20.52;65.90;100222.14;107724;1257;72744;-81
2023/06/16 02:15:32;;;;;;;14.10;9.40;;;;;;;20.54;65.83;100225.55;107986;1257;60425;-81
2023/06/16 02:18:02;;;;;;;13.80;9.70;;;;;;;20.52;65.71;100227.48;107953;1255;60664;-81
2023/06/16 02:20:30;;;;;;;11.90;9.20;;;;;;;20.44;65.70;100223.05;107922;1256;73860;-81
2023/06/16 02:22:58;;;;;;;12.10;9.30;;;;;;;20.41;65.95;100223.65;107934;1257;72665;-81
2023/06/16 02:25:26;;;;;;;12.70;9.80;;;;;;;20.41;65.87;100219.77;107954;1256;74859;-81
2023/06/16 02:27:54;;;;;;;11.70;9.90;;;;;;;20.42;65.94;100221.12;107974;1256;61755;-81
2023/06/16 02:30:22;;;;;;;10.80;9.00;;;;;;;20.45;65.88;100221.77;107990;1256;60942;-80
2023/06/16 02:32:50;;;;;;;12.00;10.20;;;;;;;20.49;65.94;100221.84;108042;1256;72548;-81
2023/06/16 02:35:29;;;;;;;11.50;9.40;;;;;;;20.51;65.83;100219.61;107919;1259;72091;-81
2023/06/16 02:37:57;;;;;;;12.40;9.70;;;;;;;20.53;65.86;100222.25;107969;1257;71619;-81
2023/06/16 02:40:25;;;;;;;12.30;9.00;;;;;;;20.54;65.83;100221.89;107906;1256;60391;-80
2023/06/16 02:42:52;;;;;;;11.50;10.10;;;;;;;20.58;65.84;100224.61;107878;1256;60427;-81
2023/06/16 02:45:20;;;;;;;10.60;9.50;;;;;;;20.62;65.76;100226.16;107892;1257;73997;-81
2023/06/16 02:47:48;;;;;;;10.20;9.00;;;;;;;20.67;65.76;100226.85;107949;1257;72705;-81
2023/06/16 02:50:16;;;;;;;11.40;9.60;;;;;;;20.71;65.79;100226.54;108010;1256;75298;-81
2023/06/16 02:52:44;;;;;;;11.70;10.00;;;;;;;20.74;65.64;100228.38;107876;1256;60448;-81
2023/06/16 02:55:15;;;;;;;12.00;9.40;;;;;;;20.80;65.65;100228.75;107973;1256;60496;-81
2023/06/16 02:57:47;;;;;;;13.70;9.80;;;;;;;20.86;65.52;100228.23;108025;1256;73964;-83
2023/06/16 03:00:16;;;;;;;11.60;9.30;;;;;;;20.93;65.49;100228.48;108047;1254;72783;-81
2023/06/16 03:03:07;;;;;;;12.10;9.60;;;;;;;20.99;65.54;100229.33;108032;1259;72948;-81
2023/06/16 03:05:36;;;;;;;10.90;9.00;;;;;;;21.06;65.39;100225.92;108082;1257;62477;-81
2023/06/16 03:08:05;;;;;;;11.20;9.20;;;;;;;21.14;65.18;100228.45;108001;1256;60319;-81
2023/06/16 03:10:32;;;;;;;12.70;9.50;;;;;;;21.19;65.29;100229.92;107980;1261;72620;-81
2023/06/16 03:13:05;;;;;;;12.40;9.60;;;;;;;21.26;65.25;100228.86;108066;1259;72052;-81
2023/06/16 03:15:33;;;;;;;11.40;8.80;;;;;;;21.35;65.06;100229.61;107968;1257;71106;-81
2023/06/16 03:18:01;;;;;;;13.20;9.30;;;;;;;21.43;64.86;100228.58;108022;1257;60373;-81
2023/06/16 03:20:31;;;;;;;10.60;8.80;;;;;;;21.47;64.82;100231.45;108084;1255;60432;-80
2023/06/16 03:23:03;;;;;;;10.10;8.10;;;;;;;21.56;64.62;100232.27;107850;1256;72572;-80
2023/06/16 03:25:32;;;;;;;12.00;8.60;;;;;;;21.62;64.60;100231.91;108162;1256;72812;-80
2023/06/16 03:28:00;;;;;;;13.40;8.30;;;;;;;21.69;64.49;100235.48;107752;1260;72753;-80
2023/06/16 03:30:28;;;;;;;13.50;8.30;;;;;;;21.74;64.25;100231.67;107993;1256;61651;-79
2023/06/16 03:33:01;;;;;;;11.50;8.70;;;;;;;21.78;64.28;100233.91;107997;1256;60171;-81
2023/06/16 03:35:28;;;;;;;10.90;8.70;;;;;;;21.85;64.04;100236.22;107778;1256;73078;-80
2023/06/16 03:37:57;;;;;;;11.30;8.80;;;;;;;21.93;64.01;100235.31;107929;1257;71602;-80
2023/06/16 03:40:25;;;;;;;10.50;8.40;;;;;;;22.01;63.81;100233.45;107806;1257;72165;-80
2023/06/16 03:42:53;;;;;;;11.40;8.60;;;;;;;22.08;63.50;100236.32;108007;1256;61664;-81
2023/06/16 03:45:21;;;;;;;9.80;8.30;;;;;;;22.18;63.30;100239.91;107990;1257;60283;-81
2023/06/16 03:47:49;;;;;;;10.80;8.20;;;;;;;22.28;62.88;100235.48;108007;1256;73891;-81
2023/06/16 03:50:17;;;;;;;9.80;7.50;;;;;;;22.39;62.86;100234.40;107882;1256;71581;-80
2023/06/16 03:52:47;;;;;;;11.00;7.90;;;;;;;22.53;62.83;100238.05;107956;1256;71408;-80
2023/06/16 03:55:23;;;;;;;11.60;8.30;;;;;;;22.66;62.71;100235.79;108014;1256;60713;-81
2023/06/16 03:57:51;;;;;;;10.70;7.20;;;;;;;22.76;62.44;100237.45;107767;1256;60458;-80
2023/06/16 04:00:19;;;;;;;9.70;7.90;;;;;;;22.84;62.03;100233.54;107880;1257;73906;-81
2023/06/16 04:02:50;;;;;;;11.30;7.80;;;;;;;22.82;61.69;100233.66;107798;1256;72508;-80
2023/06/16 04:05:24;;;;;;;11.30;7.70;;;;;;;22.79;61.63;100233.33;107988;1257;71432;-78
2023/06/16 04:07:54;;;;;;;11.60;7.60;;;;;;;22.79;61.52;100235.80;107883;1256;61703;-79
2023/06/16 04:10:22;;;;;;;10.40;7.80;;;;;;;22.81;61.45;100232.86;107901;1257;60432;-79
2023/06/16 04:12:49;;;;;;;9.60;7.60;;;;;;;22.87;61.23;100232.86;107878;1257;73785;-80
2023/06/16 04:15:17;;;;;;;10.40;7.70;;;;;;;22.97;61.22;100237.66;107914;1257;72099;-78
2023/06/16 04:17:45;;;;;;;10.00;7.30;;;;;;;23.06;60.83;100232.16;108148;1259;72004;-80
2023/06/16 04:20:14;;;;;;;9.20;6.10;;;;;;;23.18;60.27;100234.95;107961;1256;60418;-79
2023/06/16 04:22:42;;;;;;;8.80;7.30;;;;;;;23.26;59.95;100238.41;107978;1257;60152;-80
2023/06/16 04:25:11;;;;;;;10.40;6.50;;;;;;;23.33;59.80;100237.84;107921;1257;73875;-80
2023/06/16 04:27:40;;;;;;;8.90;6.70;;;;;;;23.45;59.69;100238.67;108009;1257;72718;-80
2023/06/16 04:30:08;;;;;;;9.60;7.00;;;;;;;23.57;59.18;100237.34;107875;1257;72683;-80
2023/06/16 04:32:36;;;;;;;9.00;6.80;;;;;;;23.68;59.07;100234.89;107958;1257;60434;-80
2023/06/16 04:35:07;;;;;;;7.60;6.20;;;;;;;23.85;58.89;100234.67;107953;1256;61371;-80
2023/06/16 04:37:35;;;;;;;8.20;6.00;;;;;;;23.99;58.62;100233.75;107919;1255;72562;-80
2023/06/16 04:40:05;;;;;;;10.50;6.70;;;;;;;24.11;58.09;100235.50;107932;1257;71484;-80
2023/06/16 04:42:34;;;;;;;8.90;5.50;;;;;;;24.23;57.72;100233.73;107950;1257;71415;-78
2023/06/16 04:45:03;;;;;;;9.60;5.60;;;;;;;24.30;57.12;100238.33;108094;1257;60420;-80
2023/06/16 04:47:34;;;;;;;9.20;5.20;;;;;;;24.32;56.74;100242.13;107938;1257;60038;-81
2023/06/16 04:50:02;;;;;;;10.00;5.60;;;;;;;24.32;56.17;100244.08;108055;1257;73876;-80
2023/06/16 04:52:30;;;;;;;10.90;5.50;;;;;;;24.35;55.88;100248.26;108040;1255;72827;-79
2023/06/16 04:54:58;;;;;;;7.10;5.10;;;;;;;24.41;55.43;100243.03;108084;1257;72325;-80
2023/06/16 04:57:26;;;;;;;9.00;5.40;;;;;;;24.49;55.10;100248.20;108052;1257;60456;-79
2023/06/16 04:59:53;;;;;;;7.20;5.30;;;;;;;24.59;54.69;100251.43;107832;1256;62369;-80
2023/06/16 05:02:21;;;;;;;7.20;4.90;;;;;;;24.72;54.36;100250.30;108087;1255;72541;-80
2023/06/16 05:04:50;;;;;;;8.90;6.00;;;;;;;24.82;54.38;100253.30;107728;1256;71787;-81
2023/06/16 05:07:18;;;;;;;8.10;5.20;;;;;;;24.94;54.73;100256.42;107946;1257;71412;-81
2023/06/16 05:09:45;;;;;;;8.90;5.40;;;;;;;25.09;54.56;100256.01;107821;1257;61897;-80
2023/06/16 05:12:13;;;;;;;8.30;5.30;;;;;;;25.23;53.95;100254.48;108004;1260;60636;-78
2023/06/16 05:14:41;;;;;;;8.60;4.80;;;;;;;25.35;53.10;100253.27;107989;1257;73923;-81
2023/06/16 05:17:09;;;;;;;7.80;4.50;;;;;;;25.41;51.31;100252.36;107943;1256;72941;-80
2023/06/16 05:19:38;;;;;;;6.90;3.70;;;;;;;25.46;50.31;100254.58;107933;1257;71479;-80
2023/06/16 05:22:05;;;;;;;7.90;4.10;;;;;;;25.52;49.77;100255.46;107930;1256;60467;-81
2023/06/16 05:24:34;;;;;;;7.60;4.00;;;;;;;25.57;49.55;100260.62;108027;1257;60467;-80
2023/06/16 05:27:03;;;;;;;8.20;3.80;;;;;;;25.65;49.13;100262.00;108093;1257;73890;-79
2023/06/16 05:29:31;;;;;;;8.80;4.30;;;;;;;25.77;48.84;100259.13;108077;1257;72790;-79
2023/06/16 05:32:00;;;;;;;8.00;3.90;;;;;;;25.90;48.44;100261.79;107991;1255;72724;-79
2023/06/16 05:34:28;;;;;;;6.30;3.80;;;;;;;26.01;47.49;100262.18;107924;1257;60402;-80
2023/06/16 05:36:55;;;;;;;8.50;4.10;;;;;;;26.12;47.18;100263.69;107931;1256;60105;-81
2023/06/16 05:39:24;;;;;;;9.10;4.00;;;;;;;26.24;46.53;100266.44;108030;1257;73253;-81
2023/06/16 05:41:52;;;;;;;6.00;3.50;;;;;;;26.39;46.33;100261.63;107857;1255;71936;-80
2023/06/16 05:44:20;;;;;;;7.10;3.80;;;;;;;26.55;45.80;100263.34;108120;1256;71573;-81
2023/06/16 05:46:48;;;;;;;7.60;4.00;;;;;;;26.69;45.19;100262.73;108083;1256;60454;-79
2023/06/16 05:49:17;;;;;;;9.00;4.10;;;;;;;26.80;45.11;100257.37;108012;1257;60270;-80
2023/06/16 05:51:44;;;;;;;7.80;3.90;;;;;;;26.91;44.85;100257.34;107942;1257;73911;-80
2023/06/16 05:54:12;;;;;;;5.90;3.50;;;;;;;26.93;44.19;100258.45;107847;1257;72744;-81
2023/06/16 05:56:40;;;;;;;9.20;3.80;;;;;;;26.90;44.24;100265.87;108084;1255;72709;-79
2023/06/16 05:59:08;;;;;;;7.00;3.80;;;;;;;26.90;43.80;100266.80;107913;1257;60468;-81
2023/06/16 06:01:37;;;;;;;6.00;3.90;;;;;;;26.90;43.69;100265.70;107849;1257;60133;-79
2023/06/16 06:04:05;;;;;;;7.90;3.70;;;;;;;26.90;43.78;100268.77;107971;1257;73850;-81
2023/06/16 06:06:33;;;;;;;7.60;3.90;;;;;;;26.94;44.27;100265.97;107942;1257;72846;-81
2023/06/16 06:09:01;;;;;;;8.20;4.00;;;;;;;26.96;43.91;100265.70;108007;1262;71216;-82
2023/06/16 06:11:30;;;;;;;9.00;3.70;;;;;;;26.97;43.72;100260.54;107969;1256;59679;-80
2023/06/16 06:13:58;;;;;;;7.30;4.20;;;;;;;27.01;43.66;100258.15;107943;1257;60059;-80
2023/06/16 06:16:27;;;;;;;7.90;3.70;;;;;;;27.06;42.95;100259.30;107985;1257;72001;-80
2023/06/16 06:18:55;;;;;;;6.80;3.60;;;;;;;27.10;42.44;100258.33;107884;1257;72719;-80
2023/06/16 06:21:24;;;;;;;6.60;3.60;;;;;;;27.14;42.14;100257.52;107971;1257;71341;-81
2023/06/16 06:23:51;;;;;;;6.80;3.60;;;;;;;27.19;41.72;100254.76;108032;1256;60312;-79
2023/06/16 06:26:20;;;;;;;6.80;3.40;;;;;;;27.24;41.35;100254.26;107971;1256;60329;-80
2023/06/16 06:28:49;;;;;;;6.70;4.10;;;;;;;27.28;41.25;100254.85;108010;1255;74292;-83
2023/06/16 06:31:17;;;;;;;6.30;3.30;;;;;;;27.31;41.57;100252.60;108071;1256;72748;-80
2023/06/16 06:33:45;;;;;;;5.80;3.50;;;;;;;27.39;41.16;100250.64;108051;1257;72710;-81
2023/06/16 06:36:25;;;;;;;6.40;3.30;;;;;;;27.45;40.57;100249.83;107768;1257;61223;-82
2023/06/16 06:38:54;;;;;;;5.70;4.00;;;;;;;27.50;40.85;100251.84;107879;1257;60365;-81
2023/06/16 06:41:23;;;;;;;7.60;3.80;;;;;;;27.58;41.35;100245.32;108000;1256;72612;-80
2023/06/16 06:43:56;;;;;;;8.00;4.10;;;;;;;27.67;40.38;100242.56;107985;1257;71980;-80
2023/06/16 06:46:42;;;;;;;6.40;3.40;;;;;;;27.68;39.96;100241.54;107841;1260;72701;-80
2023/06/16 06:49:10;;;;;;;7.90;4.20;;;;;;;27.71;38.27;100236.94;107908;1257;60319;-81
2023/06/16 06:51:38;;;;;;;5.60;3.50;;;;;;;27.76;39.39;100239.73;107980;1260;60422;-80
2023/06/16 06:54:07;;;;;;;6.00;3.30;;;;;;;27.86;39.75;100238.80;107989;1255;72764;-80
2023/06/16 06:56:35;;;;;;;7.00;3.20;;;;;;;27.97;38.22;100236.52;108072;1256;71131;-80
2023/06/16 06:59:02;;;;;;;7.50;3.40;;;;;;;28.07;37.64;100238.85;107785;1256;71753;-80
2023/06/16 07:01:30;;;;;;;8.20;3.40;;;;;;;28.15;37.94;100241.31;107995;1257;60463;-82
2023/06/16 07:03:58;;;;;;;7.00;3.40;;;;;;;28.24;37.34;100238.23;108016;1256;60528;-79
2023/06/16 07:06:25;;;;;;;8.50;3.40;;;;;;;28.27;36.40;100237.86;107950;1257;73130;-80
2023/06/16 07:08:53;;;;;;;6.60;3.00;;;;;;;28.29;36.32;100235.04;108086;1257;73289;-80
2023/06/16 07:11:24;;;;;;;6.60;3.20;;;;;;;28.29;35.89;100236.37;107981;1256;72715;-80
2023/06/16 07:13:51;;;;;;;5.80;3.10;;;;;;;28.34;36.24;100238.67;107947;1260;60462;-81
2023/06/16 07:16:19;;;;;;;7.70;3.20;;;;;;;28.42;36.00;100238.50;107920;1257;60338;-83
2023/06/16 07:18:47;;;;;;;7.10;3.60;;;;;;;28.53;36.02;100234.86;108009;1258;72820;-81
2023/06/16 07:21:16;;;;;;;5.80;3.40;;;;;;;28.61;35.05;100231.51;107955;1257;63756;-79
2023/06/16 07:23:44;;;;;;;5.90;3.40;;;;;;;28.69;34.71;100230.13;108058;1259;71352;-80
2023/06/16 07:26:12;;;;;;;7.50;3.00;;;;;;;28.74;34.42;100230.54;108052;1259;60440;-79
2023/06/16 07:28:42;;;;;;;6.40;3.00;;;;;;;28.78;34.39;100230.78;107972;1258;60964;-81
2023/06/16 07:31:10;;;;;;;5.70;2.60;;;;;;;28.78;34.46;100228.89;107986;1256;63647;-81
2023/06/16 07:33:38;;;;;;;6.60;3.10;;;;;;;28.82;34.55;100229.53;108128;1259;63780;-79
2023/06/16 07:36:06;;;;;;;5.90;2.80;;;;;;;28.90;33.71;100229.71;107898;1257;63780;-80
2023/06/16 07:38:34;;;;;;;6.80;3.30;;;;;;;28.93;32.88;100227.91;107948;1258;60360;-80
2023/06/16 07:41:04;;;;;;;4.20;2.90;;;;;;;28.98;34.18;100223.93;108117;1257;60437;-80
2023/06/16 07:43:32;;;;;;;6.80;2.90;;;;;;;29.10;33.36;100224.19;108130;1255;64959;-80
2023/06/16 07:46:00;;;;;;;6.90;2.70;;;;;;;29.17;32.24;100225.77;107987;1257;64098;-79
2023/06/16 07:48:28;;;;;;;5.80;2.90;;;;;;;29.21;32.57;100227.73;108037;1260;64516;-81
2023/06/16 07:50:55;;;;;;;5.80;3.30;;;;;;;29.26;32.52;100226.33;108025;1257;62315;-81
2023/06/16 07:53:23;;;;;;;6.50;2.80;;;;;;;29.32;32.34;100226.33;108073;1256;59742;-80
2023/06/16 07:55:51;;;;;;;6.70;3.30;;;;;;;29.40;32.32;100225.31;107993;1257;64959;-80
2023/06/16 07:58:20;;;;;;;8.90;3.00;;;;;;;29.47;32.79;100226.58;107973;1257;63732;-80
2023/06/16 08:00:51;;;;;;;8.50;3.30;;;;;;;29.52;33.28;100227.13;108069;1258;62437;-81
2023/06/16 08:03:19;;;;;;;6.70;3.10;;;;;;;29.52;33.34;100227.98;107942;1256;60446;-80
2023/06/16 08:05:47;;;;;;;4.90;2.80;;;;;;;29.51;32.71;100228.70;108046;1257;60172;-79
2023/06/16 08:08:17;;;;;;;3.90;2.50;;;;;;;29.47;32.43;100228.15;107953;1257;63845;-80
2023/06/16 08:10:45;;;;;;;4.60;2.80;;;;;;;29.46;32.43;100227.36;108018;1260;62496;-80
2023/06/16 08:13:12;;;;;;;5.50;2.60;;;;;;;29.56;32.50;100228.77;107975;1259;63826;-80
2023/06/16 08:15:40;;;;;;;7.10;2.90;;;;;;;29.73;32.36;100226.10;107931;1257;61102;-81
2023/06/16 08:18:08;;;;;;;4.60;2.70;;;;;;;29.82;32.03;100224.29;107957;1255;60316;-80
2023/06/16 08:20:36;;;;;;;5.00;3.00;;;;;;;29.94;31.45;100225.52;107886;1257;64990;-80
2023/06/16 08:23:04;;;;;;;5.80;3.10;;;;;;;29.93;31.59;100227.48;107933;1257;62806;-80
2023/06/16 08:25:32;;;;;;;6.90;2.80;;;;;;;29.98;31.75;100229.98;108020;1260;71398;-80
2023/06/16 08:28:00;;;;;;;6.60;2.80;;;;;;;30.11;32.46;100230.90;108015;1257;60469;-82
2023/06/16 08:30:28;;;;;;;5.90;3.10;;;;;;;30.25;32.40;100227.81;108004;1255;59753;-81
2023/06/16 08:32:55;;;;;;;5.00;2.80;;;;;;;30.37;31.74;100226.90;108083;1255;64987;-81
2023/06/16 08:35:23;;;;;;;4.70;3.00;;;;;;;30.42;31.23;100224.44;108069;1257;63736;-80
2023/06/16 08:37:51;;;;;;;8.30;3.10;;;;;;;30.48;31.91;100225.13;108091;1259;63178;-81
2023/06/16 08:40:18;;;;;;;5.10;2.80;;;;;;;30.61;31.92;100221.99;107944;1257;60431;-81
2023/06/16 08:42:47;;;;;;;5.40;2.80;;;;;;;30.78;31.69;100219.72;107996;1256;59812;-80
2023/06/16 08:45:14;;;;;;;7.30;3.20;;;;;;;30.94;30.82;100214.90;107966;1256;65071;-80
2023/06/16 08:47:42;;;;;;;5.10;2.70;;;;;;;30.94;30.88;100213.88;107946;1257;63838;-80
2023/06/16 08:50:10;;;;;;;6.70;3.30;;;;;;;30.82;31.08;100216.38;107941;1257;62458;-81
2023/06/16 08:52:40;;;;;;;7.00;3.20;;;;;;;30.58;31.56;100215.08;108009;1257;60425;-79
2023/06/16 08:55:13;;;;;;;5.10;3.00;;;;;;;30.45;31.45;100216.64;108011;1257;60303;-80
2023/06/16 08:57:55;;;;;;;6.20;3.20;;;;;;;30.42;31.58;100213.89;108016;1256;65119;-80
2023/06/16 09:00:22;;;;;;;4.00;2.90;;;;;;;30.38;31.48;100215.33;107880;1257;62679;-80
2023/06/16 09:02:53;;;;;;;5.90;2.90;;;;;;;30.43;31.75;100212.95;107719;1257;74876;-82
2023/06/16 09:05:22;;;;;;;4.10;3.00;;;;;;;30.47;30.96;100215.30;107994;1258;60472;-79
2023/06/16 09:07:50;;;;;;;8.00;3.10;;;;;;;30.49;30.94;100213.70;107995;1257;60505;-81
2023/06/16 09:10:18;;;;;;;6.40;3.00;;;;;;;30.62;31.45;100212.38;107927;1257;65056;-81
2023/06/16 09:12:51;;;;;;;4.80;2.90;;;;;;;30.86;31.11;100209.20;107964;1257;64050;-81
2023/06/16 09:15:19;;;;;;;5.00;3.20;;;;;;;31.13;31.15;100211.92;108009;1257;62505;-81
2023/06/16 09:17:48;;;;;;;6.90;2.80;;;;;;;31.37;30.97;100211.60;107853;1257;60420;-81
2023/06/16 09:20:17;;;;;;;5.20;3.00;;;;;;;31.59;30.64;100211.56;107838;1256;60297;-79
2023/06/16 09:22:49;;;;;;;5.50;2.80;;;;;;;31.69;29.34;100214.15;107973;1256;63673;-81
2023/06/16 09:25:18;;;;;;;8.70;3.50;;;;;;;31.66;29.84;100212.38;108016;1261;62541;-80
2023/06/16 09:27:47;;;;;;;6.60;3.20;;;;;;;31.62;30.03;100207.98;107700;1257;63828;-80
2023/06/16 09:30:19;;;;;;;6.20;3.00;;;;;;;31.61;29.89;100208.95;107867;1257;60338;-80
2023/06/16 09:32:49;;;;;;;6.30;2.70;;;;;;;31.55;29.67;100202.70;107996;1260;60338;-81
2023/06/16 09:35:20;;;;;;;4.90;3.20;;;;;;;31.66;29.86;100198.41;107979;1255;65040;-80
2023/06/16 09:37:50;;;;;;;8.10;3.00;;;;;;;31.85;30.03;100192.70;107921;1258;63868;-79
2023/06/16 09:40:19;;;;;;;5.00;3.10;;;;;;;32.02;29.40;100191.27;107945;1258;63760;-80
2023/06/16 09:42:49;;;;;;;6.20;2.90;;;;;;;32.09;29.22;100191.27;107919;1256;60342;-81
2023/06/16 09:45:17;;;;;;;5.70;3.10;;;;;;;32.09;29.56;100192.14;107969;1257;61645;-80
2023/06/16 09:47:48;;;;;;;6.30;2.90;;;;;;;32.02;29.46;100193.71;107669;1257;65299;-80
2023/06/16 09:50:17;;;;;;;;;;;;;;;31.85;29.67;100194.67;107813;1258;64096;-80
2023/06/16 09:52:47;;;;;;;6.30;3.20;;;;;;;31.80;29.56;100193.54;107918;1260;62464;-79
2023/06/16 09:55:15;;;;;;;6.20;3.20;;;;;;;31.86;29.37;100189.54;108225;1260;60380;-81
2023/06/16 09:57:44;;;;;;;5.70;2.80;;;;;;;31.91;28.88;100184.52;107801;1256;59878;-82
2023/06/16 10:00:15;;;;;;;6.00;2.80;;;;;;;31.91;29.39;100183.18;108058;1256;63674;-79
2023/06/16 10:02:49;;;;;;;5.30;2.90;;;;;;;31.93;28.96;100177.55;107837;1256;63568;-79
2023/06/16 10:05:18;;;;;;;6.00;3.00;;;;;;;31.97;29.51;100180.13;107969;1257;63746;-81
2023/06/16 10:07:50;;;;;;;7.00;3.00;;;;;;;32.12;29.82;100172.12;107993;1258;60508;-81
2023/06/16 10:10:23;;;;;;;5.10;2.90;;;;;;;32.33;29.42;100172.09;107962;1257;60476;-81
2023/06/16 10:12:54;;;;;;;5.40;2.80;;;;;;;32.49;28.65;100172.23;107799;1256;65144;-80
2023/06/16 10:15:23;;;;;;;5.00;3.40;;;;;;;32.51;28.65;100170.95;108075;1257;62540;-81
2023/06/16 10:17:55;;;;;;;4.70;3.10;;;;;;;32.46;28.07;100169.50;107903;1260;63809;-80
2023/06/16 10:20:25;;;;;;;6.10;2.90;;;;;;;32.40;27.72;100166.80;108060;1256;60533;-82
2023/06/16 10:22:53;;;;;;;5.80;2.80;;;;;;;32.31;28.08;100163.27;108027;1256;60296;-79
2023/06/16 10:25:22;;;;;;;6.50;2.80;;;;;;;32.26;28.23;100163.73;108108;1256;64995;-80
2023/06/16 10:27:52;;;;;;;4.70;3.20;;;;;;;32.18;28.41;100164.63;107919;1263;63797;-80
2023/06/16 10:30:21;;;;;;;4.60;2.60;;;;;;;32.13;28.64;100161.40;107915;1257;63743;-80
2023/06/16 10:32:50;;;;;;;6.90;3.30;;;;;;;32.16;28.59;100159.13;107993;1257;60396;-82
2023/06/16 10:35:18;;;;;;;4.60;3.00;;;;;;;32.23;28.41;100153.98;108186;1257;60425;-80
2023/06/16 10:37:53;;;;;;;4.70;2.80;;;;;;;32.29;28.27;100149.96;108204;1257;63672;-81
2023/06/16 10:40:22;;;;;;;6.10;2.90;;;;;;;32.20;28.50;100145.42;107984;1257;62523;-79
2023/06/16 10:42:56;;;;;;;6.20;2.90;;;;;;;32.00;29.32;100147.33;108074;1257;62485;-80
2023/06/16 10:45:26;;;;;;;6.10;3.10;;;;;;;31.84;29.56;100144.11;107998;1254;59372;-80
2023/06/16 10:48:01;;;;;;;7.10;3.90;;;;;;;31.69;29.46;100143.63;108114;1257;60435;-80
2023/06/16 10:50:32;;;;;;;4.80;3.10;;;;;;;31.57;29.76;100139.89;107920;1257;64983;-82
2023/06/16 10:53:17;;;;;;;5.70;3.00;;;;;;;31.54;29.30;100136.30;107988;1257;63816;-83
2023/06/16 10:55:45;;;;;;;4.80;3.00;;;;;;;31.60;28.90;100131.02;107921;1257;62453;-80
2023/06/16 10:58:15;;;;;;;5.60;3.00;;;;;;;31.71;29.42;100131.14;108093;1255;59215;-81
2023/06/16 11:00:43;;;;;;;5.10;3.10;;;;;;;31.88;29.30;100126.45;107937;1257;60270;-80
2023/06/16 11:03:12;;;;;;;8.50;2.90;;;;;;;32.12;29.23;100121.45;108039;1257;65060;-80
2023/06/16 11:05:40;;;;;;;6.20;3.20;;;;;;;32.34;29.03;100118.54;108001;1257;64364;-81
2023/06/16 11:08:12;;;;;;;5.30;3.00;;;;;;;32.50;28.97;100121.81;107940;1257;72727;-80
2023/06/16 11:11:03;;;;;;;4.80;2.70;;;;;;;32.58;28.37;100120.18;107938;1257;60371;-81
2023/06/16 11:13:33;;;;;;;6.60;3.10;;;;;;;32.56;28.13;100120.39;108184;1254;60439;-80
2023/06/16 11:16:01;;;;;;;6.70;2.90;;;;;;;32.39;27.54;100116.12;107977;1257;64960;-80
2023/06/16 11:18:33;;;;;;;5.00;3.10;;;;;;;32.18;27.87;100115.91;107959;1257;62675;-80
2023/06/16 11:21:03;;;;;;;5.10;2.80;;;;;;;32.02;27.56;100111.80;107961;1257;63762;-81
2023/06/16 11:23:31;;;;;;;5.50;2.90;;;;;;;31.92;28.09;100111.52;107819;1257;60412;-80
2023/06/16 11:26:08;;;;;;;7.90;2.90;;;;;;;31.92;28.50;100111.98;77967;1258;10002269;-80